Time;durP1;ratioP1;P1;durP2;ratioP2;P2;SDS_P1;SDS_P2;PMS_P1;PMS_P2;Temp;Humidity;BMP_temperature;BMP_pressure;BME280_temperature;BME280_humidity;BME280_pressure;Samples;Min_cycle;Max_cycle;Signal;HPM_P1;HPM_P2
2022/08/22 00:02:13;;;;;;;6.25;2.55;;;18.10;99.90;;;;;;4971862;28;37462;-62
2022/08/22 00:04:50;;;;;;;8.32;2.83;;;18.10;99.90;;;;;;4971608;28;36893;-61
2022/08/22 00:07:23;;;;;;;6.50;2.88;;;18.10;99.90;;;;;;4971482;28;37652;-61
2022/08/22 00:09:59;;;;;;;11.00;3.58;;;18.00;99.90;;;;;;4970033;28;36586;-61
2022/08/22 00:12:35;;;;;;;10.77;3.58;;;18.00;99.90;;;;;;4971741;28;36188;-61
2022/08/22 00:15:10;;;;;;;10.10;4.22;;;18.00;99.90;;;;;;4971743;28;39422;-58
2022/08/22 00:17:44;;;;;;;8.55;3.30;;;17.90;99.90;;;;;;4972202;28;39162;-58
2022/08/22 00:20:22;;;;;;;11.73;4.22;;;17.90;99.90;;;;;;4972559;28;37947;-58
2022/08/22 00:22:53;;;;;;;8.90;3.25;;;17.90;99.90;;;;;;4973001;28;38291;-61
2022/08/22 00:25:39;;;;;;;7.43;3.70;;;17.90;99.90;;;;;;4971757;28;39608;-61
2022/08/22 00:28:10;;;;;;;8.30;3.40;;;17.90;99.90;;;;;;4973262;28;37793;-61
2022/08/22 00:30:52;;;;;;;14.50;4.00;;;17.90;99.90;;;;;;4970725;28;35005;-61
2022/08/22 00:33:27;;;;;;;7.03;3.50;;;17.80;99.90;;;;;;4971856;28;37570;-62
2022/08/22 00:36:09;;;;;;;7.53;3.17;;;17.80;99.90;;;;;;4972711;28;39257;-61
2022/08/22 00:38:44;;;;;;;6.18;2.85;;;17.80;99.90;;;;;;4971137;28;36594;-58
2022/08/22 00:41:30;;;;;;;6.50;2.60;;;17.80;99.90;;;;;;4971902;28;36516;-58
2022/08/22 00:44:19;;;;;;;6.50;2.97;;;17.80;99.90;;;;;;4972156;28;35930;-58
2022/08/22 00:47:23;;;;;;;7.70;2.92;;;17.80;99.90;;;;;;4967772;28;38310;-58
2022/08/22 00:50:05;;;;;;;5.97;2.90;;;17.80;99.90;;;;;;4971898;28;38425;-58
2022/08/22 00:52:49;;;;;;;10.05;3.75;;;17.70;99.90;;;;;;4972006;28;35576;-58
2022/08/22 00:55:42;;;;;;;8.70;3.90;;;17.70;99.90;;;;;;4972117;28;36357;-58
2022/08/22 00:58:44;;;;;;;7.22;3.90;;;17.70;99.90;;;;;;4971481;28;38205;-58
2022/08/22 01:01:14;;;;;;;9.43;4.55;;;17.70;99.90;;;;;;4945920;28;37932;-58
2022/08/22 01:04:06;;;;;;;9.85;3.88;;;17.60;99.90;;;;;;4971087;28;37507;-58
2022/08/22 01:06:45;;;;;;;7.68;3.22;;;17.60;99.90;;;;;;4971559;28;37458;-60
2022/08/22 01:09:27;;;;;;;9.98;3.55;;;17.70;99.90;;;;;;4969458;28;39178;-61
2022/08/22 01:12:13;;;;;;;8.88;3.72;;;17.70;99.90;;;;;;4971850;28;37725;-58
2022/08/22 01:14:47;;;;;;;6.85;3.40;;;17.70;99.90;;;;;;4972660;28;35246;-57
2022/08/22 01:17:44;;;;;;;8.73;3.60;;;17.70;99.90;;;;;;4970918;28;37507;-61
2022/08/22 01:20:49;;;;;;;7.30;3.38;;;17.60;99.90;;;;;;4972046;28;38248;-61
2022/08/22 01:23:49;;;;;;;10.00;3.88;;;17.60;99.90;;;;;;4970313;28;38804;-61
2022/08/22 01:27:03;;;;;;;6.78;3.53;;;17.60;99.90;;;;;;4959291;28;36718;-61
2022/08/22 01:30:12;;;;;;;8.15;3.90;;;17.50;99.90;;;;;;4912993;28;39321;-61
2022/08/22 01:33:17;;;;;;;11.13;4.45;;;17.50;99.90;;;;;;4969947;28;38162;-61
2022/08/22 01:36:30;;;;;;;11.02;3.78;;;17.40;99.90;;;;;;4972348;28;37915;-61
2022/08/22 01:39:35;;;;;;;10.20;4.25;;;17.50;99.90;;;;;;4955652;28;35359;-58
2022/08/22 01:42:41;;;;;;;9.45;4.00;;;17.50;99.90;;;;;;4964704;28;36424;-58
2022/08/22 01:45:40;;;;;;;12.27;4.78;;;17.40;99.90;;;;;;4970374;28;38731;-58
2022/08/22 01:48:12;;;;;;;10.23;4.18;;;17.40;99.90;;;;;;4971425;28;37727;-61
2022/08/22 01:50:44;;;;;;;6.00;3.50;;;17.40;99.90;;;;;;4970732;28;37556;-61
2022/08/22 01:53:21;;;;;;;6.00;3.20;;;17.40;99.90;;;;;;4972170;28;38163;-58
2022/08/22 01:56:00;;;;;;;8.98;3.95;;;17.40;99.90;;;;;;4973465;28;39319;-61
2022/08/22 01:58:30;;;;;;;8.18;3.88;;;17.40;99.90;;;;;;4972575;28;36472;-61
2022/08/22 02:01:19;;;;;;;7.40;3.78;;;17.40;99.90;;;;;;4975224;28;36497;-61
2022/08/22 02:03:59;;;;;;;6.82;3.80;;;17.40;99.90;;;;;;4974006;28;37541;-60
2022/08/22 02:06:37;;;;;;;9.65;4.90;;;17.40;99.90;;;;;;4973847;28;37710;-61
2022/08/22 02:09:12;;;;;;;10.63;4.40;;;17.40;99.90;;;;;;4973221;28;37594;-58
2022/08/22 02:11:44;;;;;;;12.07;5.47;;;17.40;99.90;;;;;;4974713;28;36408;-61
2022/08/22 02:14:26;;;;;;;12.15;4.88;;;17.40;99.90;;;;;;4974741;28;37653;-61
2022/08/22 02:17:06;;;;;;;11.52;4.55;;;17.30;99.90;;;;;;4971549;28;38732;-61
2022/08/22 02:19:40;;;;;;;10.32;4.80;;;17.30;99.90;;;;;;4971519;28;36633;-61
2022/08/22 02:22:21;;;;;;;12.77;5.25;;;17.30;99.90;;;;;;4974753;28;38172;-58
2022/08/22 02:24:59;;;;;;;10.32;5.25;;;17.30;99.90;;;;;;4972782;28;37486;-58
2022/08/22 02:27:36;;;;;;;8.52;4.90;;;17.30;99.90;;;;;;4974680;28;37954;-58
2022/08/22 02:30:08;;;;;;;8.90;4.60;;;17.20;99.90;;;;;;4973669;28;39302;-58
2022/08/22 02:32:51;;;;;;;13.00;5.38;;;17.20;99.90;;;;;;4973745;28;36347;-58
2022/08/22 02:35:26;;;;;;;10.95;5.88;;;17.20;99.90;;;;;;4974192;28;38594;-61
2022/08/22 02:38:07;;;;;;;9.95;4.93;;;17.10;99.90;;;;;;4974937;28;36806;-58
2022/08/22 02:40:41;;;;;;;8.63;4.70;;;17.10;99.90;;;;;;4973275;28;36494;-58
2022/08/22 02:43:17;;;;;;;9.30;4.93;;;17.20;99.90;;;;;;4973222;28;37778;-58
2022/08/22 02:45:49;;;;;;;5.65;2.90;;;17.20;99.90;;;;;;4973548;28;37339;-61
2022/08/22 02:48:27;;;;;;;3.17;1.27;;;17.10;99.90;;;;;;4972855;28;38053;-61
2022/08/22 02:50:59;;;;;;;3.10;1.27;;;17.10;99.90;;;;;;4973818;28;37878;-58
2022/08/22 02:53:36;;;;;;;2.13;1.33;;;17.10;99.90;;;;;;4974471;28;35288;-61
2022/08/22 02:56:12;;;;;;;4.00;1.80;;;17.00;99.90;;;;;;4974256;28;37688;-61
2022/08/22 02:58:47;;;;;;;5.57;2.40;;;17.00;99.90;;;;;;4974062;28;38867;-61
2022/08/22 03:01:36;;;;;;;6.57;3.10;;;17.00;99.90;;;;;;4973254;28;38246;-61
2022/08/22 03:04:25;;;;;;;8.25;3.38;;;17.00;99.90;;;;;;4972966;28;36562;-61
2022/08/22 03:07:10;;;;;;;6.78;3.20;;;16.90;99.90;;;;;;4973238;28;38071;-58
2022/08/22 03:09:41;;;;;;;3.35;1.80;;;16.90;99.90;;;;;;4972864;28;37021;-58
2022/08/22 03:12:18;;;;;;;10.95;2.50;;;16.90;99.90;;;;;;4972428;28;38759;-58
2022/08/22 03:14:54;;;;;;;4.68;2.60;;;17.00;99.90;;;;;;4973844;28;35195;-58
2022/08/22 03:17:29;;;;;;;4.45;2.30;;;16.90;99.90;;;;;;4973015;28;37764;-58
2022/08/22 03:20:02;;;;;;;3.38;2.22;;;16.90;99.90;;;;;;4973123;28;40518;-58
2022/08/22 03:22:38;;;;;;;4.70;2.33;;;16.90;99.90;;;;;;4973797;28;39264;-58
2022/08/22 03:25:14;;;;;;;4.88;2.00;;;16.90;99.90;;;;;;4973312;28;37386;-58
2022/08/22 03:27:49;;;;;;;5.07;3.00;;;16.90;99.90;;;;;;4974211;28;37977;-58
2022/08/22 03:30:20;;;;;;;7.75;3.55;;;16.90;99.90;;;;;;4973296;28;36889;-58
2022/08/22 03:32:52;;;;;;;4.80;2.78;;;16.90;99.90;;;;;;4973933;28;38699;-58
2022/08/22 03:35:37;;;;;;;5.05;2.72;;;16.80;99.90;;;;;;4972553;28;35133;-58
2022/08/22 03:38:15;;;;;;;6.63;3.22;;;16.80;99.90;;;;;;4974103;28;39446;-58
2022/08/22 03:40:58;;;;;;;6.60;3.35;;;16.80;99.90;;;;;;4973417;28;38232;-58
2022/08/22 03:43:49;;;;;;;6.73;3.43;;;16.80;99.90;;;;;;4972791;28;37643;-58
2022/08/22 03:46:52;;;;;;;4.38;2.22;;;16.70;99.90;;;;;;4972603;28;35264;-58
2022/08/22 03:50:10;;;;;;;2.95;1.70;;;16.70;99.90;;;;;;4972936;28;37626;-58
2022/08/22 03:53:08;;;;;;;2.67;1.60;;;16.70;99.90;;;;;;4973336;28;39740;-58
2022/08/22 03:55:55;;;;;;;2.58;1.35;;;16.70;99.90;;;;;;4956400;28;37576;-58
2022/08/22 03:58:39;;;;;;;2.38;1.38;;;16.60;99.90;;;;;;4972451;28;37058;-58
2022/08/22 04:01:26;;;;;;;2.92;1.73;;;16.60;99.90;;;;;;4973213;28;37451;-58
2022/08/22 04:04:31;;;;;;;2.17;1.20;;;16.70;99.90;;;;;;4972746;28;39876;-58
2022/08/22 04:07:32;;;;;;;3.38;1.80;;;16.70;99.90;;;;;;4926361;28;38141;-58
2022/08/22 04:10:30;;;;;;;4.05;2.13;;;16.60;99.90;;;;;;4956457;28;36554;-61
2022/08/22 04:13:17;;;;;;;3.97;2.42;;;16.60;99.90;;;;;;4966782;28;36327;-61
2022/08/22 04:16:12;;;;;;;5.82;2.78;;;16.60;99.90;;;;;;4972903;28;37958;-58
2022/08/22 04:19:01;;;;;;;6.82;2.97;;;16.60;99.90;;;;;;4972819;28;36575;-58
2022/08/22 04:22:06;;;;;;;5.38;2.55;;;16.50;99.90;;;;;;4973323;28;38528;-58
2022/08/22 04:24:51;;;;;;;6.25;4.03;;;16.50;99.90;;;;;;4971498;28;38935;-58
2022/08/22 04:27:25;;;;;;;5.90;3.80;;;16.50;99.90;;;;;;4972194;28;38814;-58
2022/08/22 04:29:58;;;;;;;7.70;4.18;;;16.50;99.90;;;;;;4970214;28;37717;-58
2022/08/22 04:32:33;;;;;;;7.80;4.05;;;16.50;99.90;;;;;;4972645;28;37411;-58
2022/08/22 04:35:07;;;;;;;10.77;5.43;;;16.40;99.90;;;;;;4971350;28;36406;-58
2022/08/22 04:37:41;;;;;;;7.57;4.90;;;16.40;99.90;;;;;;4972502;28;38049;-58
2022/08/22 04:40:16;;;;;;;7.78;4.78;;;16.40;99.90;;;;;;4971254;28;37687;-61
2022/08/22 04:42:49;;;;;;;9.20;5.18;;;16.30;99.90;;;;;;4971684;28;36810;-58
2022/08/22 04:45:21;;;;;;;10.38;5.22;;;16.40;99.90;;;;;;4972302;28;37551;-58
2022/08/22 04:47:56;;;;;;;10.03;4.80;;;16.40;99.90;;;;;;4972370;28;20078;-58
2022/08/22 04:50:29;;;;;;;5.97;3.30;;;16.40;99.90;;;;;;4972760;28;37766;-58
2022/08/22 04:53:08;;;;;;;4.73;1.57;;;16.30;99.90;;;;;;4972033;28;37186;-62
2022/08/22 04:55:46;;;;;;;2.50;1.52;;;16.40;99.90;;;;;;4972434;28;38367;-61
2022/08/22 04:58:29;;;;;;;3.50;1.70;;;16.30;99.90;;;;;;4970658;28;39333;-61
2022/08/22 05:01:03;;;;;;;3.80;1.30;;;16.40;99.90;;;;;;4972002;28;38649;-61
2022/08/22 05:03:37;;;;;;;1.05;0.70;;;16.30;99.90;;;;;;4970765;28;36578;-61
2022/08/22 05:06:06;;;;;;;1.30;0.63;;;16.30;99.90;;;;;;4970310;28;36392;-58
2022/08/22 05:08:38;;;;;;;1.73;0.98;;;16.40;99.90;;;;;;4971685;28;39186;-58
2022/08/22 05:11:09;;;;;;;3.35;1.50;;;16.40;99.90;;;;;;4970003;28;37482;-58
2022/08/22 05:13:42;;;;;;;1.98;1.30;;;16.30;99.90;;;;;;4971520;28;35373;-61
2022/08/22 05:16:20;;;;;;;3.80;1.70;;;16.30;99.90;;;;;;4971433;28;38237;-61
2022/08/22 05:18:52;;;;;;;3.38;1.60;;;16.30;99.90;;;;;;4971767;28;37929;-61
2022/08/22 05:21:24;;;;;;;4.57;2.80;;;16.30;99.90;;;;;;4970922;28;36499;-61
2022/08/22 05:23:54;;;;;;;6.40;3.10;;;16.30;99.90;;;;;;4971594;28;36553;-61
2022/08/22 05:26:22;;;;;;;5.78;2.58;;;16.40;99.90;;;;;;4970961;28;37768;-61
2022/08/22 05:28:53;;;;;;;6.95;3.67;;;16.30;99.90;;;;;;4970748;28;37475;-61
2022/08/22 05:31:26;;;;;;;6.78;3.10;;;16.30;99.90;;;;;;4970310;28;37806;-61
2022/08/22 05:34:01;;;;;;;6.40;3.30;;;16.30;99.90;;;;;;4971254;28;36774;-61
2022/08/22 05:36:34;;;;;;;6.50;3.33;;;16.30;99.90;;;;;;4971146;28;37418;-61
2022/08/22 05:39:09;;;;;;;7.78;3.67;;;16.40;99.90;;;;;;4972177;28;38319;-61
2022/08/22 05:41:38;;;;;;;6.55;3.53;;;16.40;99.90;;;;;;4969810;28;37846;-58
2022/08/22 05:44:17;;;;;;;6.13;4.00;;;16.50;99.90;;;;;;4970500;28;37534;-58
2022/08/22 05:46:49;;;;;;;6.05;3.17;;;16.50;99.90;;;;;;4971501;28;36193;-57
2022/08/22 05:49:22;;;;;;;4.45;2.53;;;16.50;99.90;;;;;;4969659;28;38197;-58
2022/08/22 05:52:07;;;;;;;8.20;2.72;;;16.60;99.90;;;;;;4970315;28;37862;-58
2022/08/22 05:54:42;;;;;;;5.25;2.45;;;16.60;99.90;;;;;;4970634;28;35385;-58
2022/08/22 05:57:16;;;;;;;4.20;2.10;;;16.60;99.90;;;;;;4969867;28;37658;-58
2022/08/22 05:59:46;;;;;;;4.43;2.10;;;16.70;99.90;;;;;;4969869;28;36726;-58
2022/08/22 06:02:21;;;;;;;6.15;2.63;;;16.70;99.90;;;;;;4971054;28;38459;-58
2022/08/22 06:04:53;;;;;;;4.55;2.55;;;16.80;99.90;;;;;;4972076;28;34977;-61
2022/08/22 06:07:25;;;;;;;5.77;2.93;;;16.90;99.90;;;;;;4971861;28;38307;-61
2022/08/22 06:10:16;;;;;;;6.13;2.67;;;16.90;99.90;;;;;;4969447;28;38171;-58
2022/08/22 06:12:50;;;;;;;8.25;2.83;;;17.00;99.90;;;;;;4969908;28;37752;-58
2022/08/22 06:15:22;;;;;;;7.07;3.15;;;17.10;99.90;;;;;;4971222;28;36454;-58
2022/08/22 06:17:54;;;;;;;7.53;3.42;;;17.20;99.90;;;;;;4971005;28;38884;-58
2022/08/22 06:20:26;;;;;;;8.38;3.03;;;17.30;99.90;;;;;;4971069;28;38350;-58
2022/08/22 06:22:58;;;;;;;13.10;3.90;;;17.30;99.90;;;;;;4968856;28;38789;-61
2022/08/22 06:25:28;;;;;;;8.70;3.90;;;17.40;99.90;;;;;;4970018;28;35216;-61
2022/08/22 06:27:57;;;;;;;10.32;4.03;;;17.40;99.90;;;;;;4970671;28;37590;-61
2022/08/22 06:30:28;;;;;;;10.25;4.05;;;17.40;99.90;;;;;;4971167;28;38269;-62
2022/08/22 06:33:03;;;;;;;13.77;4.60;;;17.50;99.90;;;;;;4970794;28;38650;-58
2022/08/22 06:36:29;;;;;;;10.18;3.90;;;17.50;99.90;;;;;;4969709;28;36628;-58
2022/08/22 06:38:28;;;;;;;8.63;4.05;;;17.60;99.90;;;;;;4966382;28;40286;-58
2022/08/22 06:40:56;;;;;;;9.70;4.00;;;17.70;99.90;;;;;;4968213;28;41406;-58
2022/08/22 06:43:25;;;;;;;10.23;4.65;;;17.70;99.90;;;;;;4971865;28;37919;-58
2022/08/22 06:45:53;;;;;;;12.32;5.15;;;17.80;99.90;;;;;;4971952;28;36319;-58
2022/08/22 06:48:23;;;;;;;12.35;3.80;;;17.80;99.90;;;;;;4972687;28;37723;-58
2022/08/22 06:50:57;;;;;;;12.88;4.63;;;17.90;99.90;;;;;;4973299;28;39377;-58
2022/08/22 06:53:31;;;;;;;12.50;4.82;;;17.90;99.90;;;;;;4972335;28;37568;-58
2022/08/22 06:56:04;;;;;;;7.40;4.22;;;18.00;99.90;;;;;;4971141;28;35386;-58
2022/08/22 06:58:34;;;;;;;8.25;4.65;;;18.00;99.90;;;;;;4971007;28;38892;-58
2022/08/22 07:01:07;;;;;;;11.32;4.72;;;18.10;99.90;;;;;;4972391;28;36942;-58
2022/08/22 07:03:38;;;;;;;15.10;5.38;;;18.20;99.90;;;;;;4971672;28;38772;-58
2022/08/22 07:06:14;;;;;;;12.93;5.35;;;18.20;99.90;;;;;;4971739;28;37385;-58
2022/08/22 07:08:42;;;;;;;15.73;5.20;;;18.30;99.90;;;;;;4971178;28;38405;-58
2022/08/22 07:11:15;;;;;;;15.65;5.40;;;18.30;99.90;;;;;;4971768;28;38864;-58
2022/08/22 07:13:48;;;;;;;14.02;5.13;;;18.30;99.90;;;;;;4971221;28;36655;-58
2022/08/22 07:16:17;;;;;;;12.88;4.60;;;18.40;99.90;;;;;;4970573;28;36393;-58
2022/08/22 07:18:49;;;;;;;13.82;5.47;;;18.40;99.90;;;;;;4969065;28;38057;-58
2022/08/22 07:21:26;;;;;;;13.32;5.18;;;18.50;99.90;;;;;;4971654;28;38338;-58
2022/08/22 07:23:55;;;;;;;12.40;5.07;;;18.50;99.90;;;;;;4972549;28;40386;-58
2022/08/22 07:26:30;;;;;;;10.48;4.70;;;18.50;99.90;;;;;;4969792;28;39050;-62
2022/08/22 07:29:05;;;;;;;13.65;5.47;;;18.60;99.90;;;;;;4970539;28;38243;-61
2022/08/22 07:31:36;;;;;;;10.25;5.00;;;18.60;99.90;;;;;;4971629;28;39597;-61
2022/08/22 07:34:28;;;;;;;11.63;4.60;;;18.70;99.90;;;;;;4966193;28;36737;-61
2022/08/22 07:37:02;;;;;;;14.45;4.45;;;18.70;99.90;;;;;;4965865;28;35925;-61
2022/08/22 07:39:36;;;;;;;10.88;4.60;;;18.70;99.90;;;;;;4965888;28;39031;-58
2022/08/22 07:42:11;;;;;;;15.07;4.50;;;18.70;99.90;;;;;;4965239;28;40451;-58
2022/08/22 07:44:51;;;;;;;13.85;4.35;;;18.80;99.90;;;;;;4961952;28;37782;-58
2022/08/22 07:47:23;;;;;;;11.48;3.85;;;18.80;99.90;;;;;;4962311;28;39401;-61
2022/08/22 07:49:54;;;;;;;13.40;3.35;;;18.90;99.90;;;;;;4965773;28;37340;-58
2022/08/22 07:52:24;;;;;;;16.20;3.83;;;18.90;99.90;;;;;;4965459;28;39887;-58
2022/08/22 07:54:56;;;;;;;13.48;2.58;;;19.00;99.90;;;;;;4965650;28;37645;-58
2022/08/22 07:57:30;;;;;;;10.48;2.75;;;19.00;99.90;;;;;;4963905;28;35244;-61
2022/08/22 07:59:59;;;;;;;15.75;3.13;;;19.00;99.90;;;;;;4964938;28;37460;-62
2022/08/22 08:02:28;;;;;;;10.00;2.83;;;19.10;99.90;;;;;;4966057;28;39575;-61
2022/08/22 08:05:00;;;;;;;8.15;2.63;;;19.10;99.90;;;;;;4966580;28;36395;-58
2022/08/22 08:07:31;;;;;;;16.55;3.33;;;19.20;99.90;;;;;;4966891;28;35165;-61
2022/08/22 08:10:05;;;;;;;15.23;2.83;;;19.30;99.90;;;;;;4966229;28;39461;-61
2022/08/22 08:12:35;;;;;;;15.05;3.10;;;19.30;99.90;;;;;;4963938;28;39577;-61
2022/08/22 08:15:06;;;;;;;10.57;2.90;;;19.30;99.90;;;;;;4965119;28;37938;-61
2022/08/22 08:17:36;;;;;;;10.60;2.50;;;19.40;99.90;;;;;;4963182;28;35388;-58
2022/08/22 08:20:08;;;;;;;11.43;2.50;;;19.40;99.90;;;;;;4963961;28;37607;-58
2022/08/22 08:22:38;;;;;;;11.55;2.85;;;19.40;99.90;;;;;;4961721;28;38156;-58
2022/08/22 08:25:07;;;;;;;10.57;2.97;;;19.40;99.90;;;;;;4960500;28;37824;-58
2022/08/22 08:30:34;;;;;;;12.55;3.30;;;19.40;99.90;;;;;;4962831;28;38861;-61
2022/08/22 08:33:03;;;;;;;14.95;3.20;;;19.40;99.90;;;;;;4963220;28;36985;-61
2022/08/22 08:35:35;;;;;;;9.82;2.80;;;19.50;99.90;;;;;;4964919;28;37574;-61
2022/08/22 08:38:09;;;;;;;13.90;3.42;;;19.50;99.90;;;;;;4965278;28;39154;-58
2022/08/22 08:40:54;;;;;;;12.32;2.75;;;19.50;99.90;;;;;;4964770;28;37382;-62
2022/08/22 08:43:28;;;;;;;9.38;2.97;;;19.60;99.90;;;;;;4962501;28;37502;-61
2022/08/22 08:46:24;;;;;;;10.85;2.53;;;19.70;99.90;;;;;;4966424;28;39159;-62
2022/08/22 08:49:19;;;;;;;12.48;3.05;;;19.80;99.90;;;;;;4964574;28;37818;-62
2022/08/22 08:52:12;;;;;;;12.85;3.00;;;19.80;99.90;;;;;;4958076;28;36360;-58
2022/08/22 08:55:03;;;;;;;15.40;3.20;;;19.80;99.90;;;;;;4960951;28;37966;-62
2022/08/22 08:57:48;;;;;;;9.82;2.70;;;19.90;99.90;;;;;;4962094;28;37862;-61
2022/08/22 09:00:21;;;;;;;9.70;2.80;;;20.00;99.90;;;;;;4964108;28;37021;-58
2022/08/22 09:02:57;;;;;;;12.80;2.97;;;20.10;99.90;;;;;;4964580;28;38830;-61
2022/08/22 09:05:48;;;;;;;9.95;2.50;;;20.20;99.90;;;;;;4963270;28;38958;-61
2022/08/22 09:09:00;;;;;;;10.95;2.40;;;20.50;99.90;;;;;;4963596;28;39096;-61
2022/08/22 09:12:19;;;;;;;9.88;2.53;;;20.70;99.90;;;;;;4927517;28;36922;-61
2022/08/22 09:15:07;;;;;;;11.52;2.80;;;20.80;99.90;;;;;;4883535;29;37953;-58
2022/08/22 09:18:04;;;;;;;10.55;3.25;;;20.90;99.90;;;;;;4955759;28;36902;-58
2022/08/22 09:20:49;;;;;;;12.65;2.28;;;20.90;99.90;;;;;;4961703;28;38939;-58
2022/08/22 09:23:35;;;;;;;9.50;2.30;;;20.80;99.90;;;;;;4963385;28;39079;-58
2022/08/22 09:26:08;;;;;;;12.75;3.08;;;20.90;99.90;;;;;;4962769;28;37276;-58
2022/08/22 09:28:40;;;;;;;12.17;2.70;;;20.90;99.90;;;;;;4962921;28;38490;-58
2022/08/22 09:31:30;;;;;;;9.55;2.40;;;21.00;99.90;;;;;;4954525;28;38557;-58
2022/08/22 09:34:05;;;;;;;11.93;2.75;;;21.00;99.90;;;;;;4962124;28;36466;-61
2022/08/22 09:36:40;;;;;;;11.00;2.78;;;21.20;99.90;;;;;;4960718;28;37452;-61
2022/08/22 09:39:16;;;;;;;10.80;2.35;;;21.30;99.90;;;;;;4962640;28;38390;-62
2022/08/22 09:41:53;;;;;;;11.82;2.88;;;21.50;99.90;;;;;;4961532;28;37508;-62
2022/08/22 09:44:36;;;;;;;9.00;2.80;;;21.60;99.70;;;;;;4961362;28;36408;-61
2022/08/22 09:47:14;;;;;;;8.97;2.83;;;21.70;98.90;;;;;;4962849;28;38323;-62
2022/08/22 09:49:51;;;;;;;11.50;2.75;;;21.80;98.80;;;;;;4961872;28;39164;-58
2022/08/22 09:52:42;;;;;;;9.38;2.13;;;21.80;98.80;;;;;;4963346;28;37742;-58
2022/08/22 09:55:16;;;;;;;10.40;2.95;;;21.80;98.70;;;;;;4963102;28;36244;-58
2022/08/22 09:57:50;;;;;;;8.20;2.17;;;22.00;98.60;;;;;;4962283;28;37447;-58
2022/08/22 10:00:24;;;;;;;8.18;2.45;;;22.10;97.50;;;;;;4961161;28;39458;-58
2022/08/22 10:03:04;;;;;;;10.13;2.67;;;22.20;97.50;;;;;;4962631;28;37859;-58
2022/08/22 10:05:39;;;;;;;9.57;2.40;;;22.30;97.60;;;;;;4960960;28;36834;-58
2022/08/22 10:08:35;;;;;;;9.68;2.42;;;22.40;97.00;;;;;;4958731;28;37777;-62
2022/08/22 10:11:25;;;;;;;8.95;2.10;;;22.50;96.80;;;;;;4955130;28;40289;-62
2022/08/22 10:13:58;;;;;;;10.23;2.88;;;22.60;96.80;;;;;;4956351;28;39273;-62
2022/08/22 10:16:50;;;;;;;10.80;2.63;;;22.60;96.70;;;;;;4963280;28;35306;-62
2022/08/22 10:19:24;;;;;;;9.40;1.92;;;22.70;96.50;;;;;;4966098;28;37540;-62
2022/08/22 10:22:30;;;;;;;6.65;2.05;;;22.80;96.10;;;;;;4964392;28;37025;-58
2022/08/22 10:25:23;;;;;;;13.40;2.78;;;22.90;94.90;;;;;;4965059;28;36552;-58
2022/08/22 10:28:07;;;;;;;9.30;2.22;;;23.00;94.50;;;;;;4956276;28;37391;-58
2022/08/22 10:30:44;;;;;;;8.95;2.38;;;23.00;94.20;;;;;;4963541;28;37503;-58
2022/08/22 10:33:20;;;;;;;10.32;2.50;;;23.10;94.00;;;;;;4964332;28;36795;-58
2022/08/22 10:35:59;;;;;;;10.70;2.10;;;23.10;94.20;;;;;;4966230;28;38051;-58
2022/08/22 10:38:31;;;;;;;10.30;2.53;;;23.20;94.50;;;;;;4965716;28;36110;-59
2022/08/22 10:41:06;;;;;;;10.43;2.55;;;23.40;95.30;;;;;;4963014;28;36437;-58
2022/08/22 10:43:43;;;;;;;7.82;2.85;;;23.40;94.50;;;;;;4965587;28;38005;-56
2022/08/22 10:46:15;;;;;;;8.60;2.60;;;23.50;93.60;;;;;;4966161;28;37975;-56
2022/08/22 10:48:49;;;;;;;10.32;2.90;;;23.50;93.30;;;;;;4966455;28;35344;-56
2022/08/22 10:51:24;;;;;;;10.25;2.72;;;23.50;93.00;;;;;;4965200;28;37682;-56
2022/08/22 10:54:04;;;;;;;9.55;2.63;;;23.40;92.90;;;;;;4965095;28;39006;-55
2022/08/22 10:56:41;;;;;;;10.43;3.03;;;23.40;92.50;;;;;;4964612;28;37598;-55
2022/08/22 10:59:23;;;;;;;9.48;2.75;;;23.30;92.50;;;;;;4965548;28;36453;-56
2022/08/22 11:02:01;;;;;;;9.85;2.33;;;23.20;92.40;;;;;;4963654;28;37405;-59
2022/08/22 11:04:48;;;;;;;13.10;3.03;;;23.10;92.30;;;;;;4965116;28;37090;-60
2022/08/22 11:07:43;;;;;;;8.50;3.00;;;23.10;92.40;;;;;;4964151;28;38440;-59
2022/08/22 11:10:27;;;;;;;6.78;2.13;;;23.10;92.30;;;;;;4963734;28;35384;-56
2022/08/22 11:13:10;;;;;;;9.30;2.25;;;23.10;92.30;;;;;;4964474;28;39033;-59
2022/08/22 11:15:57;;;;;;;6.35;1.67;;;23.20;91.20;;;;;;4965660;28;40888;-60
2022/08/22 11:18:35;;;;;;;5.90;1.90;;;23.20;91.10;;;;;;4964334;28;39428;-60
2022/08/22 11:21:06;;;;;;;8.00;2.05;;;23.20;91.60;;;;;;4964805;28;35197;-59
2022/08/22 11:23:42;;;;;;;8.30;2.38;;;23.30;91.60;;;;;;4965550;28;39201;-59
2022/08/22 11:26:20;;;;;;;16.60;2.38;;;23.40;91.50;;;;;;4963769;28;39070;-59
2022/08/22 11:29:07;;;;;;;8.70;2.13;;;23.40;91.00;;;;;;4964209;28;37868;-60
2022/08/22 11:31:48;;;;;;;8.90;2.00;;;23.40;90.10;;;;;;4964708;28;40332;-56
2022/08/22 11:34:31;;;;;;;5.32;2.00;;;23.30;89.70;;;;;;4964742;28;36738;-56
2022/08/22 11:37:06;;;;;;;7.68;2.30;;;23.40;89.10;;;;;;4964642;28;38245;-56
2022/08/22 11:39:37;;;;;;;8.90;2.08;;;23.40;90.00;;;;;;4962681;28;38600;-56
2022/08/22 11:42:10;;;;;;;8.02;1.98;;;23.40;90.30;;;;;;4962477;28;36514;-56
2022/08/22 11:44:44;;;;;;;9.80;2.22;;;23.40;90.10;;;;;;4963298;28;37177;-56
2022/08/22 11:47:15;;;;;;;7.07;1.90;;;23.50;90.60;;;;;;4961813;28;38285;-56
2022/08/22 11:49:57;;;;;;;6.68;2.58;;;23.60;90.70;;;;;;4962264;28;39467;-55
2022/08/22 11:53:03;;;;;;;8.40;1.98;;;23.60;89.90;;;;;;4962588;28;35145;-56
2022/08/22 11:55:34;;;;;;;10.82;2.60;;;23.50;88.80;;;;;;4962362;28;39497;-55
2022/08/22 11:58:22;;;;;;;8.40;2.20;;;23.50;89.60;;;;;;4963977;28;38433;-56
2022/08/22 12:00:56;;;;;;;20.75;3.55;;;23.60;90.00;;;;;;4963705;28;37885;-56
2022/08/22 12:03:38;;;;;;;10.88;2.55;;;23.60;89.60;;;;;;4962239;28;36536;-56
2022/08/22 12:06:19;;;;;;;15.60;2.40;;;23.60;90.60;;;;;;4961906;28;36293;-56
2022/08/22 12:09:11;;;;;;;12.98;2.90;;;23.60;90.40;;;;;;4961539;28;38043;-56
2022/08/22 12:11:48;;;;;;;8.10;2.20;;;23.70;89.80;;;;;;4962995;28;37312;-59
2022/08/22 12:14:22;;;;;;;6.47;1.85;;;23.60;89.90;;;;;;4963305;28;37159;-56
2022/08/22 12:17:04;;;;;;;9.70;2.50;;;23.60;89.50;;;;;;4962935;28;37661;-56
2022/08/22 12:19:40;;;;;;;5.60;2.05;;;23.70;90.20;;;;;;4963577;28;38109;-56
2022/08/22 12:22:40;;;;;;;9.73;2.17;;;23.60;89.10;;;;;;4963723;28;37850;-56
2022/08/22 12:25:22;;;;;;;5.80;1.60;;;23.60;89.20;;;;;;4960812;28;36603;-56
2022/08/22 12:28:05;;;;;;;7.60;2.20;;;23.60;89.60;;;;;;4964435;28;36425;-56
2022/08/22 12:30:39;;;;;;;11.82;2.47;;;23.50;89.50;;;;;;4962538;28;36788;-56
2022/08/22 12:33:24;;;;;;;9.88;2.30;;;23.50;90.00;;;;;;4964096;28;37223;-59
2022/08/22 12:36:05;;;;;;;8.93;2.55;;;23.50;90.10;;;;;;4962664;28;36349;-59
2022/08/22 12:38:48;;;;;;;10.57;2.78;;;23.50;90.20;;;;;;4962483;28;37613;-59
2022/08/22 12:41:57;;;;;;;7.60;2.15;;;23.50;90.30;;;;;;4963223;28;38662;-56
2022/08/22 12:44:35;;;;;;;9.27;2.00;;;23.40;90.00;;;;;;4904187;28;38331;-55
2022/08/22 12:47:25;;;;;;;8.43;2.13;;;23.40;90.30;;;;;;4963182;28;36449;-56
2022/08/22 12:50:20;;;;;;;10.02;2.15;;;23.40;90.00;;;;;;4959375;28;37700;-56
2022/08/22 12:53:05;;;;;;;8.65;2.38;;;23.40;90.20;;;;;;4964306;28;37956;-55
2022/08/22 12:55:44;;;;;;;8.50;1.92;;;23.40;89.40;;;;;;4963158;28;36648;-59
2022/08/22 12:58:23;;;;;;;11.55;1.90;;;23.30;89.40;;;;;;4963885;28;37009;-58
2022/08/22 13:00:52;;;;;;;7.45;2.38;;;23.30;89.90;;;;;;4963029;28;37073;-59
2022/08/22 13:03:24;;;;;;;10.27;2.78;;;23.20;90.60;;;;;;4963388;28;36763;-60
2022/08/22 13:05:52;;;;;;;7.65;2.25;;;23.20;90.50;;;;;;4963075;28;37812;-56
2022/08/22 13:08:27;;;;;;;10.00;2.38;;;23.10;90.70;;;;;;4963676;28;37183;-56
2022/08/22 13:11:00;;;;;;;10.93;2.13;;;23.20;91.00;;;;;;4962839;28;38158;-59
2022/08/22 13:13:31;;;;;;;8.27;2.17;;;23.20;90.60;;;;;;4962603;28;37857;-56
2022/08/22 13:16:03;;;;;;;6.38;2.17;;;23.20;90.70;;;;;;4963735;28;39562;-56
2022/08/22 13:18:36;;;;;;;10.73;2.25;;;23.20;90.60;;;;;;4962393;28;37115;-58
2022/08/22 13:21:07;;;;;;;6.50;1.80;;;23.20;90.50;;;;;;4963504;28;36332;-58
2022/08/22 13:23:38;;;;;;;9.30;1.90;;;23.20;90.70;;;;;;4961669;28;36866;-58
2022/08/22 13:26:10;;;;;;;8.30;1.88;;;23.10;90.70;;;;;;4963124;28;37370;-58
2022/08/22 13:28:44;;;;;;;9.10;1.83;;;23.10;91.00;;;;;;4962048;28;35534;-58
2022/08/22 13:31:23;;;;;;;8.57;2.05;;;23.00;91.40;;;;;;4962377;28;39937;-58
2022/08/22 13:33:51;;;;;;;8.27;2.47;;;23.00;91.70;;;;;;4960983;28;39087;-58
2022/08/22 13:36:21;;;;;;;8.32;2.20;;;23.10;90.90;;;;;;4962425;28;36513;-58
2022/08/22 13:38:54;;;;;;;7.95;2.30;;;23.10;91.00;;;;;;4963009;28;36388;-58
2022/08/22 13:41:23;;;;;;;;;;;23.10;90.30;;;;;;4952748;28;38522;-58
2022/08/22 13:44:11;;;;;;;7.50;2.28;;;23.10;89.90;;;;;;4957974;28;40864;-58
2022/08/22 13:46:41;;;;;;;5.57;1.50;;;23.10;90.10;;;;;;4961904;28;39499;-58
2022/08/22 13:49:16;;;;;;;9.48;2.30;;;23.00;90.20;;;;;;4963709;28;36486;-58